Time;durP1;ratioP1;P1;durP2;ratioP2;P2;SDS_P1;SDS_P2;PMS_P1;PMS_P2;Temp;Humidity;BMP_temperature;BMP_pressure;BME280_temperature;BME280_humidity;BME280_pressure;Samples;Min_cycle;Max_cycle;Signal;HPM_P1;HPM_P2
2023/11/11 00:01:06;;;;;;;8.03;4.30;;;;;;;6.98;100.00;99134.56;4941201;28;20505;-88
2023/11/11 00:03:34;;;;;;;10.40;4.28;;;;;;;7.11;100.00;99153.34;4927913;28;20394;-89
2023/11/11 00:06:00;;;;;;;11.13;3.88;;;;;;;7.07;100.00;99138.81;4942538;28;20042;-88
2023/11/11 00:08:25;;;;;;;7.53;4.63;;;;;;;7.13;100.00;99135.41;4930126;28;20023;-89
2023/11/11 00:10:50;;;;;;;8.23;4.10;;;;;;;7.02;100.00;99122.56;4962563;28;20406;-88
2023/11/11 00:13:17;;;;;;;11.85;5.55;;;;;;;6.97;100.00;99135.56;4930484;28;20038;-89
2023/11/11 00:15:43;;;;;;;;;;;;;;;7.11;100.00;99171.09;4947813;28;20053;-89
2023/11/11 00:18:08;;;;;;;12.63;5.07;;;;;;;6.96;100.00;99158.63;4946583;28;20453;-89
2023/11/11 00:20:34;;;;;;;13.37;5.03;;;;;;;6.88;100.00;99176.41;4954875;28;20115;-89
2023/11/11 00:23:05;;;;;;;11.95;6.38;;;;;;;6.96;100.00;99208.22;4931081;29;20070;-88
2023/11/11 00:25:33;;;;;;;8.73;5.60;;;;;;;6.86;100.00;99204.94;4943511;28;20066;-90
2023/11/11 00:27:59;;;;;;;14.10;6.30;;;;;;;6.94;100.00;99219.00;4942794;28;20019;-89
2023/11/11 00:30:24;;;;;;;12.38;6.55;;;;;;;6.75;100.00;99212.31;4931494;28;20050;-89
2023/11/11 00:32:51;;;;;;;15.07;7.03;;;;;;;6.67;100.00;99212.38;4960448;28;20510;-89
2023/11/11 00:35:18;;;;;;;14.32;7.82;;;;;;;6.71;100.00;99228.75;4949733;28;20039;-89
2023/11/11 00:37:45;;;;;;;13.45;6.82;;;;;;;6.72;100.00;99235.72;4934127;28;20122;-89
2023/11/11 00:40:11;;;;;;;16.73;7.72;;;;;;;6.72;100.00;99233.91;4942397;28;20119;-88
2023/11/11 00:42:36;;;;;;;12.82;6.75;;;;;;;6.87;100.00;99244.56;4962854;28;20095;-88
2023/11/11 00:45:02;;;;;;;11.97;7.20;;;;;;;6.79;100.00;99241.97;4943107;28;20030;-89
2023/11/11 00:47:27;;;;;;;18.55;7.28;;;;;;;6.73;100.00;99251.44;4946097;28;20032;-89
2023/11/11 00:49:53;;;;;;;14.30;7.78;;;;;;;6.75;100.00;99246.78;4958900;28;20031;-89
2023/11/11 00:52:18;;;;;;;13.87;7.50;;;;;;;6.83;100.00;99245.09;4948063;28;20023;-89
2023/11/11 00:54:43;;;;;;;16.27;8.50;;;;;;;6.89;100.00;99253.19;4948339;28;20169;-89
2023/11/11 00:57:09;;;;;;;12.77;7.17;;;;;;;6.83;100.00;99243.25;4949653;28;20566;-89
2023/11/11 00:59:34;;;;;;;18.00;8.30;;;;;;;6.89;100.00;99252.38;4928783;28;20037;-89
2023/11/11 01:02:00;;;;;;;14.00;7.60;;;;;;;6.96;100.00;99240.06;5009037;28;20040;-88
2023/11/11 01:04:26;;;;;;;22.33;8.40;;;;;;;6.91;100.00;99245.06;4931735;28;20027;-89
2023/11/11 01:06:52;;;;;;;20.15;9.70;;;;;;;6.92;100.00;99236.91;4941091;28;20065;-89
2023/11/11 01:09:19;;;;;;;14.38;8.13;;;;;;;6.84;100.00;99230.84;4933594;28;20023;-89
2023/11/11 01:11:45;;;;;;;13.98;7.78;;;;;;;6.80;100.00;99243.63;4941537;28;20043;-88
2023/11/11 01:14:10;;;;;;;14.57;7.70;;;;;;;6.85;100.00;99245.75;4921617;29;20080;-89
2023/11/11 01:16:35;;;;;;;16.60;8.83;;;;;;;6.87;100.00;99249.88;4939690;28;20027;-89
2023/11/11 01:19:01;;;;;;;14.77;8.33;;;;;;;6.79;100.00;99233.19;4931771;29;20377;-89
2023/11/11 01:21:26;;;;;;;13.70;8.07;;;;;;;6.92;100.00;99247.53;4942346;28;20082;-89
2023/11/11 01:23:52;;;;;;;18.37;9.47;;;;;;;6.94;100.00;99244.69;4935976;28;20307;-91
2023/11/11 01:26:19;;;;;;;19.47;8.97;;;;;;;7.02;100.00;99247.28;4944295;28;20419;-89
2023/11/11 01:28:44;;;;;;;16.00;8.88;;;;;;;7.04;100.00;99234.69;4942082;28;20342;-89
2023/11/11 01:31:09;;;;;;;17.30;8.57;;;;;;;6.95;100.00;99233.94;4941013;28;20523;-88
2023/11/11 01:33:35;;;;;;;15.60;7.72;;;;;;;6.91;100.00;99242.41;4938124;28;20036;-89
2023/11/11 01:36:04;;;;;;;16.58;8.10;;;;;;;7.05;100.00;99246.97;4952355;28;20023;-89
2023/11/11 01:38:30;;;;;;;13.00;7.50;;;;;;;6.87;100.00;99230.50;4947996;28;20032;-88
2023/11/11 01:40:56;;;;;;;13.57;8.30;;;;;;;6.97;100.00;99252.31;4944710;28;20039;-88
2023/11/11 01:43:21;;;;;;;24.27;9.57;;;;;;;7.04;100.00;99249.78;4953050;28;20040;-89
2023/11/11 01:45:47;;;;;;;12.93;7.60;;;;;;;6.99;100.00;99237.03;4947957;28;20522;-89
2023/11/11 01:48:13;;;;;;;15.13;9.33;;;;;;;6.99;100.00;99237.03;4932335;28;20023;-89
2023/11/11 01:50:42;;;;;;;12.45;7.28;;;;;;;6.86;100.00;99242.09;4941185;28;20378;-89
2023/11/11 01:53:10;;;;;;;16.40;9.93;;;;;;;6.81;100.00;99244.44;4956571;28;20609;-89
2023/11/11 01:55:35;;;;;;;15.73;8.27;;;;;;;6.91;100.00;99259.16;4929622;28;20471;-89
2023/11/11 01:58:02;;;;;;;16.60;9.18;;;;;;;6.75;100.00;99240.69;4946130;28;20089;-89
2023/11/11 02:00:32;;;;;;;17.27;9.10;;;;;;;6.69;100.00;99244.00;4931257;28;20126;-89
2023/11/11 02:02:58;;;;;;;18.25;10.35;;;;;;;6.71;100.00;99249.97;4933969;28;20028;-88
2023/11/11 02:05:24;;;;;;;20.88;9.40;;;;;;;6.63;100.00;99248.19;4935934;28;20507;-90
2023/11/11 02:07:50;;;;;;;18.55;10.13;;;;;;;6.59;100.00;99259.31;4949136;28;20036;-88
2023/11/11 02:10:15;;;;;;;19.48;9.05;;;;;;;6.79;100.00;99262.34;4950544;28;20060;-89
2023/11/11 02:12:42;;;;;;;16.80;10.30;;;;;;;6.79;100.00;99263.22;4932276;28;20027;-90
2023/11/11 02:15:09;;;;;;;14.20;8.35;;;;;;;6.89;100.00;99255.03;4941620;28;20044;-89
2023/11/11 02:17:35;;;;;;;32.35;12.52;;;;;;;6.92;100.00;99254.66;4932194;28;20019;-88
2023/11/11 02:20:02;;;;;;;18.85;10.65;;;;;;;6.89;100.00;99241.75;4958031;28;20027;-89
2023/11/11 02:22:28;;;;;;;17.80;10.38;;;;;;;7.03;100.00;99251.63;4936703;28;20399;-89
2023/11/11 02:24:57;;;;;;;16.98;9.40;;;;;;;6.85;100.00;99235.97;4929177;28;20036;-89
2023/11/11 02:27:22;;;;;;;17.63;9.90;;;;;;;6.98;100.00;99243.34;4937035;28;20031;-89
2023/11/11 02:29:48;;;;;;;17.37;9.07;;;;;;;7.00;100.00;99244.00;4949363;28;20039;-89
2023/11/11 02:32:13;;;;;;;14.65;9.10;;;;;;;6.94;100.00;99245.53;4946484;28;20046;-89
2023/11/11 02:34:39;;;;;;;19.48;10.52;;;;;;;6.90;100.00;99243.41;4921446;28;20845;-89
2023/11/11 02:37:04;;;;;;;20.27;9.55;;;;;;;6.86;100.00;99240.28;4927913;28;20032;-88
2023/11/11 02:39:30;;;;;;;19.13;10.98;;;;;;;6.98;100.00;99251.31;4955837;28;20028;-89
2023/11/11 02:41:56;;;;;;;20.98;10.60;;;;;;;6.98;100.00;99249.47;4946937;28;20035;-87
2023/11/11 02:44:22;;;;;;;18.92;10.57;;;;;;;6.75;100.00;99235.38;4947547;28;20037;-89
2023/11/11 02:46:47;;;;;;;20.97;10.47;;;;;;;6.92;100.00;99244.03;4947790;28;20065;-88
2023/11/11 02:49:13;;;;;;;19.23;10.97;;;;;;;6.96;100.00;99253.31;4955917;28;20279;-89
2023/11/11 02:51:39;;;;;;;21.63;11.77;;;;;;;6.88;100.00;99240.09;4947614;28;20027;-87
2023/11/11 02:54:04;;;;;;;23.33;11.13;;;;;;;7.04;100.00;99252.44;4945651;28;20058;-89
2023/11/11 02:56:30;;;;;;;17.27;10.93;;;;;;;7.05;100.00;99246.97;4929474;28;20031;-89
2023/11/11 02:58:56;;;;;;;19.40;11.10;;;;;;;7.07;100.00;99244.97;4929804;28;20123;-89
2023/11/11 03:01:21;;;;;;;24.73;11.32;;;;;;;6.97;100.00;99233.72;4937940;28;20044;-89
2023/11/11 03:03:47;;;;;;;22.45;11.63;;;;;;;6.93;100.00;99229.78;4947975;28;20395;-89
2023/11/11 03:06:12;;;;;;;19.17;10.77;;;;;;;7.09;100.00;99244.75;4947563;28;20077;-89
2023/11/11 03:08:38;;;;;;;21.05;11.15;;;;;;;7.11;100.00;99234.78;4945784;28;20082;-89
2023/11/11 03:11:04;;;;;;;22.00;11.33;;;;;;;7.11;100.00;99245.41;4953117;28;20031;-90
2023/11/11 03:13:30;;;;;;;;;;;;;;;7.19;100.00;99240.06;5006404;28;20054;-89
2023/11/11 03:15:55;;;;;;;24.38;12.23;;;;;;;7.07;100.00;99239.66;4939746;28;19910;-89
2023/11/11 03:18:21;;;;;;;26.93;11.43;;;;;;;7.07;100.00;99229.03;4962542;28;20033;-89
2023/11/11 03:20:46;;;;;;;20.63;11.65;;;;;;;7.02;100.00;99226.06;4936473;28;20145;-89
2023/11/11 03:23:12;;;;;;;25.08;12.77;;;;;;;7.02;100.00;99230.53;4942639;28;20059;-88
2023/11/11 03:25:37;;;;;;;26.00;14.07;;;;;;;7.11;100.00;99235.63;4923540;28;20035;-89
2023/11/11 03:28:03;;;;;;;24.60;12.83;;;;;;;6.91;100.00;99221.19;4939372;28;20077;-89
2023/11/11 03:30:29;;;;;;;25.02;12.18;;;;;;;7.09;100.00;99239.44;4936262;28;20040;-89
2023/11/11 03:32:54;;;;;;;26.60;13.73;;;;;;;6.97;100.00;99239.03;4926053;29;20852;-89
2023/11/11 03:35:20;;;;;;;30.17;13.70;;;;;;;7.06;100.00;99243.28;4952450;28;20046;-88
2023/11/11 03:37:45;;;;;;;29.25;14.63;;;;;;;7.01;100.00;99228.91;4931469;28;20039;-88
2023/11/11 03:40:12;;;;;;;23.90;12.20;;;;;;;6.96;100.00;99232.91;4948452;28;20046;-89
2023/11/11 03:42:37;;;;;;;25.23;13.43;;;;;;;6.87;100.00;99233.16;4947014;28;20035;-89
2023/11/11 03:45:04;;;;;;;24.60;13.27;;;;;;;6.76;100.00;99229.06;4947367;28;20028;-89
2023/11/11 03:47:30;;;;;;;26.63;14.13;;;;;;;6.82;100.00;99236.31;4952938;28;20046;-89
2023/11/11 03:49:56;;;;;;;29.33;13.50;;;;;;;6.92;100.00;99244.03;4920402;28;20020;-89
2023/11/11 03:52:21;;;;;;;29.33;15.15;;;;;;;6.85;100.00;99232.50;4936585;28;20395;-89
2023/11/11 03:54:47;;;;;;;22.43;13.13;;;;;;;6.66;100.00;99231.94;4945510;28;20114;-89
2023/11/11 03:57:12;;;;;;;28.38;13.80;;;;;;;6.84;100.00;99249.41;4968076;23;20284;-76
2023/11/11 03:59:39;;;;;;;32.00;15.35;;;;;;;6.82;100.00;99248.75;4944316;28;20032;-75
2023/11/11 04:02:04;;;;;;;29.20;14.13;;;;;;;6.81;100.00;99244.44;4957718;28;20035;-76
2023/11/11 04:04:32;;;;;;;33.63;15.30;;;;;;;6.79;100.00;99236.69;4946456;28;20369;-76
2023/11/11 04:06:58;;;;;;;24.60;13.13;;;;;;;6.89;100.00;99239.91;4965690;28;20442;-75
2023/11/11 04:09:24;;;;;;;29.85;14.30;;;;;;;6.87;100.00;99239.25;4948811;28;20026;-77
2023/11/11 04:11:49;;;;;;;34.85;15.68;;;;;;;6.88;100.00;99237.44;4956026;28;20514;-75
2023/11/11 04:14:14;;;;;;;31.67;14.68;;;;;;;6.85;100.00;99243.09;4956128;28;20089;-75
2023/11/11 04:16:43;;;;;;;31.47;14.10;;;;;;;6.96;100.00;99245.34;4946774;28;20514;-76
2023/11/11 04:19:08;;;;;;;34.80;14.88;;;;;;;6.98;100.00;99246.84;4961127;28;20301;-77
2023/11/11 04:21:34;;;;;;;25.77;13.27;;;;;;;6.96;100.00;99242.69;4974691;28;20030;-76
2023/11/11 04:23:59;;;;;;;35.63;15.67;;;;;;;6.95;100.00;99246.34;4976036;28;20294;-76
2023/11/11 04:26:25;;;;;;;25.93;13.37;;;;;;;6.97;100.00;99244.34;4979148;28;20585;-76
2023/11/11 04:28:50;;;;;;;23.02;12.80;;;;;;;6.93;100.00;99241.22;4956168;28;20077;-77
2023/11/11 04:31:17;;;;;;;27.37;13.90;;;;;;;7.01;100.00;99244.84;4948749;28;20038;-78
2023/11/11 04:33:43;;;;;;;27.58;13.45;;;;;;;7.02;100.00;99247.28;4947691;28;20558;-77
2023/11/11 04:36:08;;;;;;;26.63;13.48;;;;;;;6.97;100.00;99241.69;4981227;28;20027;-76
2023/11/11 04:38:36;;;;;;;34.43;16.73;;;;;;;6.99;100.00;99247.66;4969411;28;20056;-76
2023/11/11 04:41:04;;;;;;;29.13;14.90;;;;;;;6.94;100.00;99256.13;4951480;28;20027;-77
2023/11/11 04:43:29;;;;;;;33.10;14.70;;;;;;;7.02;100.00;99259.72;4937243;28;20062;-76
2023/11/11 04:45:55;;;;;;;27.88;13.85;;;;;;;6.94;100.00;99252.66;4945445;28;20035;-77
2023/11/11 04:48:20;;;;;;;27.67;14.70;;;;;;;6.83;100.00;99256.53;4947881;28;20177;-77
2023/11/11 04:50:46;;;;;;;28.77;12.98;;;;;;;6.85;100.00;99259.03;4940657;28;20031;-77
2023/11/11 04:53:12;;;;;;;26.37;13.37;;;;;;;6.79;100.00;99262.34;4949058;28;20451;-76
2023/11/11 04:55:37;;;;;;;35.73;14.60;;;;;;;6.80;100.00;99266.69;4981747;28;20738;-77
2023/11/11 04:58:03;;;;;;;29.37;13.13;;;;;;;6.75;100.00;99265.38;4941998;28;20027;-77
2023/11/11 05:00:29;;;;;;;;;;;;;;;6.73;100.00;99264.72;4951686;28;20027;-76
2023/11/11 05:02:54;;;;;;;33.75;12.70;;;;;;;6.68;100.00;99279.50;4962449;28;20390;-77
2023/11/11 05:05:20;;;;;;;30.15;14.45;;;;;;;6.80;100.00;99274.63;4941026;28;20039;-78
2023/11/11 05:07:46;;;;;;;30.30;14.48;;;;;;;6.62;100.00;99273.03;4941512;28;20031;-78
2023/11/11 05:10:16;;;;;;;26.58;14.52;;;;;;;6.68;100.00;99276.84;4963443;28;20023;-77
2023/11/11 05:12:41;;;;;;;30.73;15.13;;;;;;;6.69;100.00;99281.97;5027621;28;20138;-77
2023/11/11 05:15:14;;;;;;;34.60;14.65;;;;;;;6.64;100.00;99280.84;4961828;28;20545;-76
2023/11/11 05:17:44;;;;;;;30.45;16.38;;;;;;;6.72;100.00;99283.47;4954031;28;20043;-76
2023/11/11 05:20:14;;;;;;;26.48;13.80;;;;;;;6.55;100.00;99272.94;4943982;28;20055;-77
2023/11/11 05:22:43;;;;;;;40.47;16.48;;;;;;;6.63;100.00;99285.31;4974353;28;20313;-76
2023/11/11 05:25:11;;;;;;;29.73;15.52;;;;;;;6.67;100.00;99288.44;4963418;28;20648;-77
2023/11/11 05:27:37;;;;;;;31.15;15.52;;;;;;;6.54;100.00;99287.19;4964282;28;20149;-76
2023/11/11 05:30:04;;;;;;;33.10;15.32;;;;;;;6.70;100.00;99294.25;4966255;28;20562;-76
2023/11/11 05:32:30;;;;;;;37.13;15.02;;;;;;;6.75;100.00;99293.72;4967650;28;20046;-77
2023/11/11 05:34:57;;;;;;;30.80;14.57;;;;;;;6.65;100.00;99299.25;4956844;28;20498;-76
2023/11/11 05:37:26;;;;;;;31.55;13.82;;;;;;;6.53;100.00;99290.00;4983635;28;20051;-76
2023/11/11 05:39:52;;;;;;;29.63;14.60;;;;;;;6.55;100.00;99288.84;4950541;28;20546;-76
2023/11/11 05:42:17;;;;;;;33.78;15.15;;;;;;;6.54;100.00;99302.25;4966645;28;20110;-77
2023/11/11 05:44:42;;;;;;;35.05;16.13;;;;;;;6.62;100.00;99302.22;4950230;28;20039;-78
2023/11/11 05:47:08;;;;;;;36.27;16.07;;;;;;;6.63;100.00;99305.72;4952422;28;20568;-76
2023/11/11 05:49:34;;;;;;;;;;;;;;;6.61;100.00;99305.06;4955684;28;20058;-77
2023/11/11 05:52:01;;;;;;;34.72;14.38;;;;;;;6.68;100.00;99303.38;4959925;28;19914;-76
2023/11/11 05:54:27;;;;;;;33.65;16.73;;;;;;;6.65;100.00;99295.75;4947636;28;20070;-76
2023/11/11 05:56:53;;;;;;;31.70;14.40;;;;;;;6.63;100.00;99309.19;4966037;28;20023;-76
2023/11/11 05:59:18;;;;;;;36.55;14.82;;;;;;;6.75;100.00;99321.06;4947217;28;20457;-76
2023/11/11 06:01:47;;;;;;;28.47;14.47;;;;;;;6.76;100.00;99320.06;4965383;28;20035;-76
2023/11/11 06:04:14;;;;;;;37.85;15.93;;;;;;;6.73;100.00;99309.81;4947934;28;20176;-78
2023/11/11 06:06:41;;;;;;;34.58;16.25;;;;;;;6.55;100.00;99298.59;4966968;28;20499;-78
2023/11/11 06:09:15;;;;;;;30.73;14.30;;;;;;;6.64;100.00;99308.19;4946710;28;20030;-77
2023/11/11 06:11:45;;;;;;;33.42;15.63;;;;;;;6.79;100.00;99320.72;4965505;28;20180;-77
2023/11/11 06:14:16;;;;;;;30.17;14.13;;;;;;;6.83;100.00;99322.03;4967845;28;20554;-76
2023/11/11 06:16:42;;;;;;;33.55;15.07;;;;;;;6.76;100.00;99312.09;4966999;28;20043;-79
2023/11/11 06:19:07;;;;;;;30.95;14.35;;;;;;;6.68;100.00;99308.69;4983380;28;20060;-81
2023/11/11 06:21:33;;;;;;;24.07;13.13;;;;;;;6.63;100.00;99314.50;4968240;28;20069;-78
2023/11/11 06:23:59;;;;;;;36.80;16.25;;;;;;;6.60;100.00;99314.00;4968187;28;20027;-79
2023/11/11 06:26:24;;;;;;;32.33;15.70;;;;;;;6.55;100.00;99309.22;4950430;28;20046;-76
2023/11/11 06:28:52;;;;;;;37.05;14.18;;;;;;;6.50;100.00;99309.72;4958027;28;20039;-79
2023/11/11 06:31:19;;;;;;;26.98;13.70;;;;;;;6.52;100.00;99309.56;4967668;28;20031;-76
2023/11/11 06:33:46;;;;;;;38.03;14.60;;;;;;;6.49;100.00;99312.56;4965109;28;20046;-76
2023/11/11 06:36:16;;;;;;;29.50;13.55;;;;;;;6.49;100.00;99318.69;4951002;28;20083;-79
2023/11/11 06:38:41;;;;;;;40.88;16.67;;;;;;;6.51;100.00;99318.53;4957912;28;20082;-78
2023/11/11 06:41:08;;;;;;;41.58;17.30;;;;;;;6.45;100.00;99324.50;4950044;28;20031;-77
2023/11/11 06:43:34;;;;;;;41.20;16.92;;;;;;;6.55;100.00;99341.03;4950354;28;20096;-78
2023/11/11 06:46:00;;;;;;;32.17;16.23;;;;;;;6.51;100.00;99337.91;4945982;29;20178;-76
2023/11/11 06:48:29;;;;;;;34.08;17.17;;;;;;;6.57;100.00;99354.94;4948996;28;20501;-78
2023/11/11 06:50:54;;;;;;;36.00;15.40;;;;;;;6.65;100.00;99362.03;4966622;28;20035;-80
2023/11/11 06:53:19;;;;;;;33.90;16.70;;;;;;;6.48;100.00;99355.97;4964908;28;20042;-79
2023/11/11 06:55:48;;;;;;;36.58;15.55;;;;;;;6.39;100.00;99362.28;4964905;28;20691;-78
2023/11/11 06:58:14;;;;;;;42.25;18.35;;;;;;;6.56;100.00;99377.16;4943101;28;20434;-78
2023/11/11 07:00:40;;;;;;;39.47;17.83;;;;;;;6.67;100.00;99384.78;4946970;28;20055;-78
2023/11/11 07:03:05;;;;;;;37.78;17.30;;;;;;;6.66;100.00;99380.44;4962032;28;20073;-78
2023/11/11 07:05:31;;;;;;;34.03;16.38;;;;;;;6.74;100.00;99379.59;4955209;28;20039;-77
2023/11/11 07:07:56;;;;;;;43.87;16.13;;;;;;;6.78;100.00;99385.38;4948831;28;20033;-78
2023/11/11 07:10:21;;;;;;;37.17;17.70;;;;;;;6.64;100.00;99378.97;4960446;28;20122;-79
2023/11/11 07:12:51;;;;;;;39.10;18.13;;;;;;;6.82;100.00;99392.00;4947903;28;20023;-78
2023/11/11 07:15:16;;;;;;;34.25;16.42;;;;;;;6.85;100.00;99392.47;4967512;28;20035;-79
2023/11/11 07:17:42;;;;;;;34.05;17.25;;;;;;;6.83;100.00;99385.69;4948156;28;20019;-78
2023/11/11 07:20:10;;;;;;;28.70;16.03;;;;;;;6.56;100.00;99377.16;4964902;28;20038;-78
2023/11/11 07:22:39;;;;;;;41.30;16.88;;;;;;;6.66;100.00;99395.53;4980288;28;20031;-75
2023/11/11 07:25:09;;;;;;;41.10;18.65;;;;;;;6.63;100.00;99402.00;4980417;28;20031;-80
2023/11/11 07:27:35;;;;;;;40.83;19.73;;;;;;;6.42;100.00;99391.13;4979386;28;20041;-79
2023/11/11 07:30:04;;;;;;;42.10;18.83;;;;;;;6.59;100.00;99407.81;4967256;28;20472;-78
2023/11/11 07:32:30;;;;;;;48.20;17.85;;;;;;;6.61;100.00;99409.31;4957431;28;20047;-79
2023/11/11 07:34:57;;;;;;;42.70;18.35;;;;;;;6.57;100.00;99407.97;4957990;28;20027;-78
2023/11/11 07:37:22;;;;;;;34.72;16.08;;;;;;;6.60;100.00;99407.63;4944362;28;20039;-79
2023/11/11 07:39:48;;;;;;;37.58;17.48;;;;;;;6.51;100.00;99408.69;4973978;28;20030;-76
2023/11/11 07:42:13;;;;;;;39.70;18.60;;;;;;;6.43;100.00;99408.69;4960482;28;20122;-78
2023/11/11 07:44:39;;;;;;;37.60;18.25;;;;;;;6.55;100.00;99417.94;4943520;28;20762;-78
2023/11/11 07:47:07;;;;;;;41.25;17.80;;;;;;;6.66;100.00;99425.53;4953203;28;20118;-79
2023/11/11 07:49:33;;;;;;;41.05;16.60;;;;;;;6.72;100.00;99427.53;4960486;28;20442;-78
2023/11/11 07:51:58;;;;;;;35.33;16.65;;;;;;;6.93;100.00;99434.06;4945531;28;20026;-79
2023/11/11 07:54:24;;;;;;;36.80;16.97;;;;;;;7.04;100.00;99431.06;4936937;28;20039;-79
2023/11/11 07:56:50;;;;;;;35.17;16.60;;;;;;;7.11;100.00;99421.41;4955237;28;20030;-79
2023/11/11 07:59:17;;;;;;;36.88;17.88;;;;;;;7.05;100.00;99413.31;4948633;28;20042;-79
2023/11/11 08:01:43;;;;;;;35.20;18.00;;;;;;;6.79;100.00;99400.28;4997281;28;20057;-78
2023/11/11 08:04:08;;;;;;;43.38;19.48;;;;;;;6.82;100.00;99418.53;4980653;28;20038;-79
2023/11/11 08:06:34;;;;;;;37.87;18.30;;;;;;;6.79;100.00;99413.56;4979676;28;20122;-79
2023/11/11 08:08:59;;;;;;;45.93;18.97;;;;;;;7.02;100.00;99433.03;4964087;28;20107;-76
2023/11/11 08:11:25;;;;;;;41.33;17.70;;;;;;;7.19;100.00;99432.00;4956221;28;20491;-76
2023/11/11 08:13:51;;;;;;;41.25;17.45;;;;;;;7.00;100.00;99419.16;4946207;28;20051;-76
2023/11/11 08:16:18;;;;;;;36.80;17.60;;;;;;;7.11;100.00;99429.34;4964034;28;20514;-77
2023/11/11 08:18:44;;;;;;;41.38;16.90;;;;;;;7.19;100.00;99423.22;4979433;28;20290;-77
2023/11/11 08:21:09;;;;;;;38.20;19.23;;;;;;;7.24;100.00;99420.88;4946728;28;20053;-75
2023/11/11 08:23:35;;;;;;;37.55;18.17;;;;;;;7.22;100.00;99409.59;4964161;28;20392;-77
2023/11/11 08:26:03;;;;;;;37.50;18.58;;;;;;;7.31;100.00;99415.69;4951877;28;20032;-76
2023/11/11 08:28:28;;;;;;;36.58;17.10;;;;;;;7.29;100.00;99418.50;4962228;28;20042;-77
2023/11/11 08:30:54;;;;;;;32.90;16.92;;;;;;;7.42;100.00;99417.94;4957461;28;20030;-76
2023/11/11 08:33:19;;;;;;;36.47;17.80;;;;;;;7.49;100.00;99413.59;4962534;28;20049;-75
2023/11/11 08:35:45;;;;;;;36.97;16.20;;;;;;;7.42;100.00;99402.00;4977796;28;20046;-77
2023/11/11 08:38:10;;;;;;;38.38;17.25;;;;;;;7.33;100.00;99405.72;4963445;28;20084;-76
2023/11/11 08:40:36;;;;;;;34.40;18.30;;;;;;;7.41;100.00;99410.97;4962357;28;20069;-76
2023/11/11 08:43:01;;;;;;;37.08;17.42;;;;;;;7.35;100.00;99404.56;4946570;28;20027;-78
2023/11/11 08:45:27;;;;;;;38.67;18.83;;;;;;;7.33;100.00;99403.06;4988637;28;20046;-76
2023/11/11 08:47:53;;;;;;;35.28;17.45;;;;;;;7.27;100.00;99406.41;4946029;28;20045;-77
2023/11/11 08:50:19;;;;;;;42.28;18.67;;;;;;;7.16;100.00;99407.59;4978960;28;20030;-76
2023/11/11 08:52:44;;;;;;;41.75;18.00;;;;;;;7.26;100.00;99418.00;4980091;28;20035;-76
2023/11/11 08:55:10;;;;;;;47.67;20.88;;;;;;;7.43;100.00;99432.88;4962674;28;20051;-76
2023/11/11 08:57:36;;;;;;;38.70;19.42;;;;;;;7.41;100.00;99429.56;4964600;28;20038;-76
2023/11/11 09:00:08;;;;;;;33.42;18.40;;;;;;;7.56;100.00;99427.84;4965273;28;20038;-76
2023/11/11 09:02:34;;;;;;;43.28;19.80;;;;;;;7.33;100.00;99419.81;4946704;28;20047;-78
2023/11/11 09:05:00;;;;;;;37.83;19.85;;;;;;;7.23;100.00;99424.50;4950849;28;20035;-78
2023/11/11 09:07:25;;;;;;;46.45;21.45;;;;;;;7.34;100.00;99425.94;4971373;28;20050;-77
2023/11/11 09:10:01;;;;;;;40.53;18.83;;;;;;;7.55;100.00;99446.59;4963079;28;20027;-75
2023/11/11 09:12:45;;;;;;;43.72;21.25;;;;;;;7.63;100.00;99437.75;4955291;28;20140;-77
2023/11/11 09:15:10;;;;;;;45.42;22.52;;;;;;;7.67;100.00;99439.88;4948330;28;20407;-75
2023/11/11 09:17:37;;;;;;;44.47;21.67;;;;;;;7.44;100.00;99423.06;4947706;28;20123;-76
2023/11/11 09:20:07;;;;;;;43.72;20.52;;;;;;;7.69;100.00;99447.69;4957441;28;20031;-76
2023/11/11 09:22:34;;;;;;;41.00;22.00;;;;;;;7.85;100.00;99455.53;4979273;28;20053;-76
2023/11/11 09:25:02;;;;;;;37.83;19.23;;;;;;;8.29;100.00;99475.31;4973804;28;20061;-76
2023/11/11 09:27:27;;;;;;;44.45;18.48;;;;;;;8.03;100.00;99444.63;4949934;28;20089;-76
2023/11/11 09:29:53;;;;;;;42.10;20.60;;;;;;;7.92;100.00;99427.25;4964305;28;20019;-76
2023/11/11 09:32:19;;;;;;;35.22;18.70;;;;;;;8.01;100.00;99418.22;4966275;23;20118;-73
2023/11/11 09:34:48;;;;;;;42.33;19.75;;;;;;;7.93;100.00;99415.59;4946077;29;20042;-74
2023/11/11 09:37:13;;;;;;;39.60;17.20;;;;;;;8.15;100.00;99431.75;4940629;28;20063;-75
2023/11/11 09:39:39;;;;;;;34.93;17.97;;;;;;;8.13;100.00;99415.97;4947086;28;20074;-76
2023/11/11 09:42:05;;;;;;;43.60;21.77;;;;;;;8.10;100.00;99411.00;4930805;29;20510;-74
2023/11/11 09:44:31;;;;;;;41.75;20.33;;;;;;;8.23;100.00;99410.38;4941177;28;20047;-75
2023/11/11 09:46:57;;;;;;;36.40;18.90;;;;;;;8.27;100.00;99406.38;4950038;29;20058;-76
2023/11/11 09:49:24;;;;;;;44.05;22.58;;;;;;;8.36;100.00;99407.13;4951426;28;20759;-76
2023/11/11 09:51:53;;;;;;;48.47;20.52;;;;;;;8.23;100.00;99405.06;4948997;28;20019;-76
2023/11/11 09:54:19;;;;;;;38.85;18.80;;;;;;;8.36;100.00;99418.59;4951684;28;20124;-75
2023/11/11 09:56:45;;;;;;;39.92;19.80;;;;;;;8.30;100.00;99390.03;4947176;28;20054;-76
2023/11/11 09:59:11;;;;;;;48.07;20.37;;;;;;;8.49;100.00;99401.19;4949859;28;20027;-76
2023/11/11 10:01:41;;;;;;;36.55;19.50;;;;;;;8.72;100.00;99404.63;4946257;29;20446;-75
2023/11/11 10:04:07;;;;;;;41.22;18.58;;;;;;;8.73;100.00;99397.44;4941536;29;20040;-75
2023/11/11 10:06:33;;;;;;;38.38;19.92;;;;;;;8.60;100.00;99387.47;4951446;28;20093;-74
2023/11/11 10:09:00;;;;;;;;;;;;;;;8.56;100.00;99378.19;4948643;28;20031;-75
2023/11/11 10:11:25;;;;;;;37.15;18.13;;;;;;;8.41;100.00;99367.53;4946833;28;20467;-77
2023/11/11 10:13:55;;;;;;;33.25;17.58;;;;;;;8.42;100.00;99363.88;4947674;28;20069;-74
2023/11/11 10:16:25;;;;;;;36.70;19.17;;;;;;;8.53;100.00;99363.41;4946019;29;20050;-74
2023/11/11 10:18:58;;;;;;;31.52;17.33;;;;;;;8.62;100.00;99350.88;4946444;28;20030;-73
2023/11/11 10:21:24;;;;;;;34.97;17.98;;;;;;;8.72;100.00;99358.56;4963621;28;20096;-74
2023/11/11 10:23:51;;;;;;;29.27;16.73;;;;;;;9.15;100.00;99382.63;4946154;28;20023;-74
2023/11/11 10:26:20;;;;;;;34.42;17.83;;;;;;;9.23;100.00;99347.94;4940703;28;20089;-74
2023/11/11 10:28:50;;;;;;;34.70;18.33;;;;;;;9.09;100.00;99296.38;4939988;28;20133;-74
2023/11/11 10:31:17;;;;;;;28.95;16.85;;;;;;;9.29;100.00;99302.72;4932570;28;20039;-74
2023/11/11 10:33:43;;;;;;;31.33;17.70;;;;;;;9.31;100.00;99273.22;4933995;28;20023;-74
2023/11/11 10:36:09;;;;;;;31.20;16.05;;;;;;;8.98;100.00;99224.97;4934490;28;20066;-73
2023/11/11 10:38:34;;;;;;;33.97;17.93;;;;;;;8.99;100.00;99277.19;4934054;28;20050;-72
2023/11/11 10:40:59;;;;;;;33.90;16.43;;;;;;;8.82;100.00;99266.75;4940527;28;20271;-74
2023/11/11 10:43:28;;;;;;;30.13;16.30;;;;;;;8.79;100.00;99259.16;4932818;28;20035;-75
2023/11/11 10:45:54;;;;;;;29.38;14.73;;;;;;;8.92;100.00;99247.88;4946260;28;21179;-74
2023/11/11 10:48:21;;;;;;;29.60;13.90;;;;;;;9.20;100.00;99208.00;4942798;28;20039;-74
2023/11/11 10:50:47;;;;;;;23.75;12.30;;;;;;;9.46;100.00;99198.59;4949567;28;20114;-74
2023/11/11 10:53:15;;;;;;;22.67;11.40;;;;;;;9.36;100.00;99139.47;4932651;28;20142;-74
2023/11/11 10:55:41;;;;;;;25.77;12.32;;;;;;;9.66;100.00;99178.22;4937541;28;20435;-74
2023/11/11 10:58:09;;;;;;;21.83;12.10;;;;;;;9.36;100.00;99108.34;4951032;28;20101;-74
2023/11/11 11:00:36;;;;;;;26.17;12.18;;;;;;;9.28;100.00;99052.56;4944318;28;20039;-75
2023/11/11 11:03:03;;;;;;;19.52;12.60;;;;;;;9.23;100.00;99087.78;4942319;28;20031;-75
2023/11/11 11:05:55;;;;;;;22.48;12.73;;;;;;;9.33;100.00;99113.25;4941152;28;20045;-76
2023/11/11 11:08:34;;;;;;;24.08;12.07;;;;;;;9.42;100.00;99093.44;4949783;29;20035;-76
2023/11/11 11:11:03;;;;;;;21.92;11.43;;;;;;;9.44;100.00;99092.22;4946442;28;20089;-74
2023/11/11 11:13:31;;;;;;;19.88;11.65;;;;;;;9.44;100.00;99067.44;4944067;28;20023;-77
2023/11/11 11:15:56;;;;;;;19.38;11.38;;;;;;;9.28;100.00;99034.75;4939999;28;20035;-75